createdAt,value
2019-04-26T00:00:00.822Z,1003.66
2019-04-26T00:01:00.860Z,1003.68
2019-04-26T00:02:53.851Z,1003.64
2019-04-26T00:03:53.907Z,1003.62
2019-04-26T00:05:46.921Z,1003.58
2019-04-26T00:06:46.954Z,1003.60
2019-04-26T00:08:39.948Z,1003.60
2019-04-26T00:09:40.006Z,1003.56
2019-04-26T00:11:32.998Z,1003.51
2019-04-26T00:12:33.049Z,1003.49
2019-04-26T00:14:26.091Z,1003.52
2019-04-26T00:15:26.111Z,1003.47
2019-04-26T00:17:19.080Z,1003.49
2019-04-26T00:18:19.142Z,1003.54
2019-04-26T00:20:12.978Z,1003.55
2019-04-26T00:21:12.184Z,1003.51
2019-04-26T00:23:05.196Z,1003.44
2019-04-26T00:24:05.230Z,1003.35
2019-04-26T00:25:58.232Z,1003.24
2019-04-26T00:26:58.273Z,1003.26
2019-04-26T00:28:51.262Z,1003.27
2019-04-26T00:29:51.324Z,1003.23
2019-04-26T00:31:44.323Z,1003.22
2019-04-26T00:32:44.367Z,1003.20
2019-04-26T00:34:37.366Z,1003.25
2019-04-26T00:35:47.325Z,1003.28
2019-04-26T00:37:30.424Z,1003.43
2019-04-26T00:38:30.465Z,1003.53
2019-04-26T00:40:23.477Z,1003.63
2019-04-26T00:41:23.511Z,1003.67
2019-04-26T00:43:16.498Z,1003.77
2019-04-26T00:44:16.626Z,1003.76
2019-04-26T00:46:09.561Z,1003.86
2019-04-26T00:47:09.612Z,1003.88
2019-04-26T00:49:02.630Z,1003.86
2019-04-26T00:50:02.657Z,1003.87
2019-04-26T00:51:55.656Z,1003.85
2019-04-26T00:52:55.754Z,1003.80
2019-04-26T00:54:48.701Z,1003.76
2019-04-26T00:55:48.748Z,1003.77
2019-04-26T00:57:41.746Z,1003.87
2019-04-26T00:58:41.785Z,1003.90
2019-04-26T01:00:34.771Z,1003.92
2019-04-26T01:01:34.828Z,1003.97
2019-04-26T01:03:27.836Z,1003.87
2019-04-26T01:04:27.875Z,1003.79
2019-04-26T01:06:20.946Z,1003.74
2019-04-26T01:07:21.158Z,1003.75
2019-04-26T01:09:15.906Z,1003.82
2019-04-26T01:10:13.998Z,1003.80
2019-04-26T01:12:06.958Z,1003.89
2019-04-26T01:13:07.018Z,1003.87
2019-04-26T01:15:00.026Z,1003.95
2019-04-26T01:16:00.059Z,1003.93
2019-04-26T01:17:53.043Z,1004.07
2019-04-26T01:18:53.103Z,1004.08
2019-04-26T01:20:46.108Z,1004.18
2019-04-26T01:21:46.144Z,1004.22
2019-04-26T01:23:39.130Z,1004.29
2019-04-26T01:24:39.191Z,1004.28
2019-04-26T01:26:32.197Z,1004.28
2019-04-26T01:27:32.247Z,1004.28
2019-04-26T01:29:25.969Z,1004.16
2019-04-26T01:30:25.863Z,1004.12
2019-04-26T01:32:19.231Z,1004.00
2019-04-26T01:33:18.743Z,1003.97
2019-04-26T01:35:11.344Z,1003.99
2019-04-26T01:36:13.201Z,1003.99
2019-04-26T01:38:04.368Z,1003.99
2019-04-26T01:39:04.427Z,1004.01
2019-04-26T01:40:57.429Z,1004.06
2019-04-26T01:41:57.470Z,1004.01
2019-04-26T01:43:50.462Z,1004.03
2019-04-26T01:44:50.512Z,1004.03
2019-04-26T01:46:43.530Z,1004.19
2019-04-26T01:47:43.580Z,1004.28
2019-04-26T01:49:36.592Z,1004.34
2019-04-26T01:50:36.629Z,1004.36
2019-04-26T01:52:29.764Z,1004.35
2019-04-26T01:53:29.670Z,1004.36
2019-04-26T01:55:23.000Z,1004.27
2019-04-26T01:56:23.481Z,1004.21
2019-04-26T01:58:15.694Z,1004.13
2019-04-26T01:59:15.753Z,1004.11
2019-04-26T02:01:08.780Z,1004.03
2019-04-26T02:02:09.030Z,1004.05
2019-04-26T02:04:01.820Z,1004.09
2019-04-26T02:05:01.857Z,1004.12
2019-04-26T02:06:54.866Z,1004.08
2019-04-26T02:07:54.904Z,1004.01
2019-04-26T02:09:48.009Z,1003.95
2019-04-26T02:10:47.950Z,1003.98
2019-04-26T02:12:40.941Z,1004.13
2019-04-26T02:13:40.989Z,1004.18
2019-04-26T02:15:34.013Z,1004.17
2019-04-26T02:16:34.053Z,1004.15
2019-04-26T02:18:27.349Z,1004.21
2019-04-26T02:19:27.499Z,1004.30
2019-04-26T02:21:20.112Z,1004.33
2019-04-26T02:22:20.147Z,1004.36
2019-04-26T02:24:13.131Z,1004.38
2019-04-26T02:25:13.192Z,1004.38
2019-04-26T02:27:06.255Z,1004.48
2019-04-26T02:28:06.262Z,1004.51
2019-04-26T02:29:59.239Z,1004.54
2019-04-26T02:30:59.295Z,1004.63
2019-04-26T02:32:52.296Z,1004.66
2019-04-26T02:33:52.337Z,1004.59
2019-04-26T02:35:45.859Z,1004.55
2019-04-26T02:36:56.942Z,1004.50
2019-04-26T02:38:38.901Z,1004.50
2019-04-26T02:39:38.944Z,1004.53
2019-04-26T02:41:33.491Z,1004.59
2019-04-26T02:42:32.940Z,1004.59
2019-04-26T02:44:26.659Z,1004.54
2019-04-26T02:45:28.300Z,1004.48
2019-04-26T02:47:18.027Z,1004.39
2019-04-26T02:48:18.067Z,1004.38
2019-04-26T02:50:11.055Z,1004.44
2019-04-26T02:51:11.112Z,1004.45
2019-04-26T02:53:04.113Z,1004.49
2019-04-26T02:54:04.170Z,1004.43
2019-04-26T02:55:57.144Z,1004.41
2019-04-26T02:56:57.201Z,1004.38
2019-04-26T02:58:50.201Z,1004.40
2019-04-26T02:59:50.243Z,1004.42
2019-04-26T03:01:43.257Z,1004.45
2019-04-26T03:02:43.285Z,1004.40
2019-04-26T03:04:37.680Z,1004.27
2019-04-26T03:05:37.650Z,1004.27
2019-04-26T03:07:31.480Z,1004.32
2019-04-26T03:08:29.842Z,1004.33
2019-04-26T03:10:22.362Z,1004.33
2019-04-26T03:11:22.421Z,1004.32
2019-04-26T03:13:15.426Z,1004.32
2019-04-26T03:14:15.463Z,1004.38
2019-04-26T03:16:08.466Z,1004.46
2019-04-26T03:17:08.517Z,1004.46
2019-04-26T03:19:01.520Z,1004.39
2019-04-26T03:20:01.552Z,1004.45
2019-04-26T03:21:54.544Z,1004.52
2019-04-26T03:22:54.595Z,1004.53
2019-04-26T03:24:48.781Z,1004.51
2019-04-26T03:25:47.640Z,1004.45
2019-04-26T03:27:43.021Z,1004.32
2019-04-26T03:28:43.479Z,1004.22
2019-04-26T03:30:39.140Z,1004.24
2019-04-26T03:31:38.973Z,1004.15
2019-04-26T03:33:26.876Z,1004.04
2019-04-26T03:34:26.774Z,1004.03
2019-04-26T03:36:19.788Z,1004.15
2019-04-26T03:37:21.521Z,1004.19
2019-04-26T03:39:12.806Z,1004.20
2019-04-26T03:40:12.881Z,1004.13
2019-04-26T03:42:05.882Z,1004.12
2019-04-26T03:43:05.914Z,1004.12
2019-04-26T03:44:58.897Z,1004.29
2019-04-26T03:45:58.964Z,1004.35
2019-04-26T03:47:51.972Z,1004.45
2019-04-26T03:48:52.004Z,1004.50
2019-04-26T03:50:45.089Z,1004.64
2019-04-26T03:51:45.063Z,1004.72
2019-04-26T03:53:39.729Z,1004.68
2019-04-26T03:54:39.819Z,1004.66
2019-04-26T03:56:31.085Z,1004.66
2019-04-26T03:57:31.133Z,1004.69
2019-04-26T03:59:24.141Z,1004.78
2019-04-26T04:00:24.180Z,1004.83
2019-04-26T04:02:17.165Z,1004.88
2019-04-26T04:03:17.224Z,1004.80
2019-04-26T04:05:10.239Z,1004.74
2019-04-26T04:06:10.266Z,1004.68
2019-04-26T04:08:03.250Z,1004.70
2019-04-26T04:09:03.310Z,1004.72
2019-04-26T04:10:56.323Z,1004.74
2019-04-26T04:12:10.022Z,1004.75
2019-04-26T04:13:51.419Z,1004.81
2019-04-26T04:14:49.409Z,1004.82
2019-04-26T04:16:43.602Z,1004.85
2019-04-26T04:17:45.407Z,1004.80
2019-04-26T04:19:35.421Z,1004.77
2019-04-26T04:20:35.478Z,1004.79
2019-04-26T04:22:28.490Z,1004.75
2019-04-26T04:23:28.538Z,1004.74
2019-04-26T04:25:21.509Z,1004.79
2019-04-26T04:26:21.569Z,1004.82
2019-04-26T04:28:14.581Z,1004.81
2019-04-26T04:29:14.614Z,1004.79
2019-04-26T04:31:07.617Z,1004.85
2019-04-26T04:32:07.677Z,1004.79
2019-04-26T04:34:00.687Z,1004.73
2019-04-26T04:35:00.719Z,1004.73
2019-04-26T04:36:53.963Z,1004.71
2019-04-26T04:38:08.034Z,1004.70
2019-04-26T04:39:48.516Z,1004.82
2019-04-26T04:40:47.203Z,1004.82
2019-04-26T04:42:41.253Z,1004.84
2019-04-26T04:43:41.868Z,1004.84
2019-04-26T04:45:32.889Z,1004.94
2019-04-26T04:46:32.899Z,1004.96
2019-04-26T04:48:25.923Z,1004.99
2019-04-26T04:49:25.947Z,1005.01
2019-04-26T04:51:18.958Z,1005.05
2019-04-26T04:52:18.990Z,1005.08
2019-04-26T04:54:11.970Z,1005.03
2019-04-26T04:55:12.030Z,1005.05
2019-04-26T04:57:05.046Z,1005.05
2019-04-26T04:58:05.094Z,1005.07
2019-04-26T04:59:58.571Z,1005.14
2019-04-26T05:00:58.623Z,1005.17
2019-04-26T05:02:51.703Z,1005.19
2019-04-26T05:03:51.665Z,1005.18
2019-04-26T05:05:44.949Z,1005.25
2019-04-26T05:06:44.995Z,1005.26
2019-04-26T05:08:37.724Z,1005.37
2019-04-26T05:09:37.757Z,1005.38
2019-04-26T05:11:30.736Z,1005.37
2019-04-26T05:12:30.794Z,1005.36
2019-04-26T05:14:23.804Z,1005.34
2019-04-26T05:15:23.835Z,1005.30
2019-04-26T05:17:16.821Z,1005.27
2019-04-26T05:18:16.890Z,1005.29
2019-04-26T05:20:09.891Z,1005.29
2019-04-26T05:21:09.922Z,1005.34
2019-04-26T05:23:02.925Z,1005.34
2019-04-26T05:24:02.996Z,1005.37
2019-04-26T05:25:55.998Z,1005.36
2019-04-26T05:26:56.028Z,1005.34
2019-04-26T05:28:49.575Z,1005.26
2019-04-26T05:29:49.917Z,1005.24
2019-04-26T05:31:42.084Z,1005.25
2019-04-26T05:32:42.125Z,1005.25
2019-04-26T05:34:35.124Z,1005.28
2019-04-26T05:35:35.188Z,1005.22
2019-04-26T05:37:28.201Z,1005.23
2019-04-26T05:38:28.238Z,1005.24
2019-04-26T05:40:21.220Z,1005.24
2019-04-26T05:41:21.276Z,1005.30
2019-04-26T05:43:14.290Z,1005.32
2019-04-26T05:44:14.323Z,1005.38
2019-04-26T05:46:07.318Z,1005.43
2019-04-26T05:47:07.379Z,1005.45
2019-04-26T05:49:00.408Z,1005.53
2019-04-26T05:50:00.439Z,1005.57
2019-04-26T05:51:53.616Z,1005.62
2019-04-26T05:52:53.482Z,1005.66
2019-04-26T05:54:46.521Z,1005.66
2019-04-26T05:55:46.518Z,1005.59
2019-04-26T05:57:39.578Z,1005.54
2019-04-26T05:58:39.573Z,1005.55
2019-04-26T06:00:32.583Z,1005.49
2019-04-26T06:01:32.613Z,1005.48
2019-04-26T06:03:25.607Z,1005.48
2019-04-26T06:04:25.667Z,1005.47
2019-04-26T06:06:18.681Z,1005.49
2019-04-26T06:07:18.714Z,1005.49
2019-04-26T06:09:11.696Z,1005.54
2019-04-26T06:10:11.754Z,1005.55
2019-04-26T06:12:04.769Z,1005.59
2019-04-26T06:13:04.791Z,1005.60
2019-04-26T06:14:58.849Z,1005.59
2019-04-26T06:15:58.047Z,1005.53
2019-04-26T06:17:51.722Z,1005.58
2019-04-26T06:18:51.791Z,1005.61
2019-04-26T06:20:43.889Z,1005.69
2019-04-26T06:21:43.952Z,1005.72
2019-04-26T06:23:36.960Z,1005.73
2019-04-26T06:24:37.002Z,1005.72
2019-04-26T06:26:30.014Z,1005.70
2019-04-26T06:27:30.038Z,1005.69
2019-04-26T06:29:23.025Z,1005.65
2019-04-26T06:30:23.085Z,1005.63
2019-04-26T06:32:16.162Z,1005.64
2019-04-26T06:33:16.142Z,1005.63
2019-04-26T06:35:09.127Z,1005.60
2019-04-26T06:36:09.218Z,1005.56
2019-04-26T06:38:02.200Z,1005.55
2019-04-26T06:39:02.232Z,1005.56
2019-04-26T06:40:55.911Z,1005.62
2019-04-26T06:41:56.055Z,1005.65
2019-04-26T06:43:48.277Z,1005.69
2019-04-26T06:44:48.317Z,1005.69
2019-04-26T06:46:41.302Z,1005.79
2019-04-26T06:47:41.361Z,1005.80
2019-04-26T06:49:34.375Z,1005.86
2019-04-26T06:50:34.403Z,1005.92
2019-04-26T06:52:27.381Z,1005.95
2019-04-26T06:53:27.472Z,1005.96
2019-04-26T06:55:20.466Z,1005.97
2019-04-26T06:56:20.510Z,1005.95
2019-04-26T06:58:13.474Z,1005.94
2019-04-26T06:59:13.559Z,1005.93
2019-04-26T07:01:06.549Z,1005.92
2019-04-26T07:02:06.586Z,1005.94
2019-04-26T07:03:59.722Z,1005.94
2019-04-26T07:05:00.662Z,1005.95
2019-04-26T07:06:52.657Z,1006.03
2019-04-26T07:07:52.680Z,1006.03
2019-04-26T07:09:45.671Z,1006.10
2019-04-26T07:10:45.760Z,1006.12
2019-04-26T07:12:38.731Z,1006.15
2019-04-26T07:13:38.787Z,1006.18
2019-04-26T07:15:31.820Z,1006.30
2019-04-26T07:16:31.812Z,1006.29
2019-04-26T07:18:24.791Z,1006.31
2019-04-26T07:19:24.850Z,1006.34
2019-04-26T07:21:17.862Z,1006.33
2019-04-26T07:22:17.892Z,1006.31
2019-04-26T07:24:11.218Z,1006.28
2019-04-26T07:25:11.083Z,1006.30
2019-04-26T07:27:04.990Z,1006.23
2019-04-26T07:28:08.107Z,1006.19
2019-04-26T07:29:56.994Z,1006.18
2019-04-26T07:30:57.015Z,1006.21
2019-04-26T07:32:50.030Z,1006.28
2019-04-26T07:33:50.065Z,1006.28
2019-04-26T07:35:43.053Z,1006.28
2019-04-26T07:36:43.111Z,1006.31
2019-04-26T07:38:36.114Z,1006.37
2019-04-26T07:39:36.150Z,1006.37
2019-04-26T07:41:29.142Z,1006.40
2019-04-26T07:42:29.195Z,1006.40
2019-04-26T07:44:22.186Z,1006.38
2019-04-26T07:45:22.233Z,1006.36
2019-04-26T07:47:15.436Z,1006.30
2019-04-26T07:48:15.274Z,1006.28
2019-04-26T07:50:09.385Z,1006.25
2019-04-26T07:51:09.420Z,1006.27
2019-04-26T07:53:03.253Z,1006.31
2019-04-26T07:54:02.448Z,1006.38
2019-04-26T07:55:54.352Z,1006.49
2019-04-26T07:56:54.413Z,1006.60
2019-04-26T07:58:47.428Z,1006.70
2019-04-26T07:59:47.459Z,1006.74
2019-04-26T08:01:40.440Z,1006.81
2019-04-26T08:02:40.501Z,1006.77
2019-04-26T08:04:33.534Z,1006.81
2019-04-26T08:05:33.541Z,1006.75
2019-04-26T08:07:29.562Z,1006.75
2019-04-26T08:08:26.595Z,1006.68
2019-04-26T08:10:19.609Z,1006.68
2019-04-26T08:11:19.640Z,1006.68
2019-04-26T08:13:13.104Z,1006.66
2019-04-26T08:14:12.688Z,1006.63
2019-04-26T08:16:06.740Z,1006.63
2019-04-26T08:17:06.582Z,1006.69
2019-04-26T08:18:58.716Z,1006.71
2019-04-26T08:19:58.877Z,1006.69
2019-04-26T08:21:51.788Z,1006.78
2019-04-26T08:22:52.294Z,1006.84
2019-04-26T08:24:44.812Z,1006.88
2019-04-26T08:25:45.062Z,1006.97
2019-04-26T08:27:37.878Z,1007.01
2019-04-26T08:28:37.905Z,1006.99
2019-04-26T08:30:30.890Z,1007.05
2019-04-26T08:31:30.950Z,1007.04
2019-04-26T08:33:25.490Z,1007.11
2019-04-26T08:34:28.860Z,1007.10
2019-04-26T08:36:18.524Z,1007.15
2019-04-26T08:37:19.283Z,1007.12
2019-04-26T08:39:11.598Z,1007.10
2019-04-26T08:40:16.303Z,1007.12
2019-04-26T08:42:04.605Z,1007.09
2019-04-26T08:43:04.670Z,1007.10
2019-04-26T08:44:57.676Z,1007.09
2019-04-26T08:46:03.139Z,1007.12
2019-04-26T08:47:53.480Z,1007.17
2019-04-26T08:48:50.752Z,1007.18
2019-04-26T08:50:45.873Z,1007.28
2019-04-26T08:51:43.794Z,1007.27
2019-04-26T08:53:36.776Z,1007.32
2019-04-26T08:54:36.853Z,1007.31
2019-04-26T08:56:29.867Z,1007.34
2019-04-26T08:57:29.901Z,1007.37
2019-04-26T08:59:22.917Z,1007.38
2019-04-26T09:00:22.948Z,1007.34
2019-04-26T09:02:15.944Z,1007.36
2019-04-26T09:03:15.990Z,1007.39
2019-04-26T09:05:08.995Z,1007.42
2019-04-26T09:06:09.042Z,1007.47
2019-04-26T09:08:03.926Z,1007.49
2019-04-26T09:09:02.085Z,1007.48
2019-04-26T09:10:55.079Z,1007.47
2019-04-26T09:11:59.715Z,1007.44
2019-04-26T09:13:49.966Z,1007.38
2019-04-26T09:14:48.185Z,1007.31
2019-04-26T09:16:50.158Z,1007.26
2019-04-26T09:17:41.231Z,1007.27
2019-04-26T09:19:34.235Z,1007.22
2019-04-26T09:20:34.275Z,1007.26
2019-04-26T09:22:27.735Z,1007.23
2019-04-26T09:23:39.348Z,1007.18
2019-04-26T09:25:22.607Z,1007.20
2019-04-26T09:26:20.409Z,1007.25
2019-04-26T09:28:13.397Z,1007.36
2019-04-26T09:29:13.433Z,1007.42
2019-04-26T09:31:06.420Z,1007.46
2019-04-26T09:32:06.475Z,1007.44
2019-04-26T09:33:59.483Z,1007.41
2019-04-26T09:34:59.520Z,1007.43
2019-04-26T09:36:52.530Z,1007.44
2019-04-26T09:37:52.570Z,1007.48
2019-04-26T09:39:45.572Z,1007.49
2019-04-26T09:40:45.634Z,1007.50
2019-04-26T09:42:39.688Z,1007.53
2019-04-26T09:43:38.685Z,1007.56
2019-04-26T09:45:31.671Z,1007.60
2019-04-26T09:46:31.728Z,1007.63
2019-04-26T09:48:24.748Z,1007.61
2019-04-26T09:49:24.778Z,1007.65
2019-04-26T09:51:17.765Z,1007.58
2019-04-26T09:52:17.826Z,1007.55
2019-04-26T09:54:10.841Z,1007.60
2019-04-26T09:55:10.882Z,1007.54
2019-04-26T09:57:03.891Z,1007.59
2019-04-26T09:58:03.931Z,1007.61
2019-04-26T09:59:56.955Z,1007.58
2019-04-26T10:00:56.984Z,1007.58
2019-04-26T10:02:49.971Z,1007.51
2019-04-26T10:03:50.030Z,1007.53
2019-04-26T10:05:43.029Z,1007.48
2019-04-26T10:06:43.077Z,1007.51
2019-04-26T10:08:36.063Z,1007.50
2019-04-26T10:09:36.122Z,1007.50
2019-04-26T10:11:29.655Z,1007.45
2019-04-26T10:12:29.695Z,1007.53
2019-04-26T10:14:22.680Z,1007.54
2019-04-26T10:15:26.618Z,1007.59
2019-04-26T10:17:17.407Z,1007.49
2019-04-26T10:18:15.790Z,1007.50
2019-04-26T10:20:08.784Z,1007.47
2019-04-26T10:21:08.844Z,1007.45
2019-04-26T10:23:01.866Z,1007.44
2019-04-26T10:24:01.898Z,1007.48
2019-04-26T10:25:54.906Z,1007.51
2019-04-26T10:26:55.490Z,1007.52
2019-04-26T10:28:50.691Z,1007.46
2019-04-26T10:29:48.014Z,1007.49
2019-04-26T10:31:41.003Z,1007.45
2019-04-26T10:32:41.064Z,1007.48
2019-04-26T10:34:34.073Z,1007.47
2019-04-26T10:35:34.113Z,1007.48
2019-04-26T10:37:38.762Z,1007.48
2019-04-26T10:38:27.160Z,1007.50
2019-04-26T10:40:20.150Z,1007.51
2019-04-26T10:41:20.210Z,1007.55
2019-04-26T10:43:13.225Z,1007.54
2019-04-26T10:44:13.259Z,1007.54
2019-04-26T10:46:06.245Z,1007.53
2019-04-26T10:47:06.306Z,1007.49
2019-04-26T10:49:08.591Z,1007.48
2019-04-26T10:49:59.355Z,1007.44
2019-04-26T10:51:52.366Z,1007.50
2019-04-26T10:52:54.314Z,1007.56
2019-04-26T10:54:46.119Z,1007.57
2019-04-26T10:55:46.535Z,1007.60
2019-04-26T10:57:38.475Z,1007.63
2019-04-26T10:58:38.504Z,1007.63
2019-04-26T11:00:31.495Z,1007.65
2019-04-26T11:01:31.555Z,1007.65
2019-04-26T11:03:24.575Z,1007.66
2019-04-26T11:04:25.923Z,1007.68
2019-04-26T11:06:17.588Z,1007.73
2019-04-26T11:07:17.647Z,1007.69
2019-04-26T11:09:10.653Z,1007.78
2019-04-26T11:10:10.694Z,1007.72
2019-04-26T11:12:03.702Z,1007.77
2019-04-26T11:13:03.746Z,1007.77
2019-04-26T11:14:57.105Z,1007.79
2019-04-26T11:15:56.799Z,1007.78
2019-04-26T11:17:50.133Z,1007.77
2019-04-26T11:18:49.842Z,1007.77
2019-04-26T11:20:45.615Z,1007.78
2019-04-26T11:21:42.896Z,1007.77
2019-04-26T11:23:35.906Z,1007.79
2019-04-26T11:24:35.941Z,1007.81
2019-04-26T11:26:31.047Z,1007.77
2019-04-26T11:27:28.994Z,1007.76
2019-04-26T11:29:24.962Z,1007.81
2019-04-26T11:30:22.148Z,1007.80
2019-04-26T11:32:15.030Z,1007.78
2019-04-26T11:33:15.088Z,1007.74
2019-04-26T11:35:08.100Z,1007.71
2019-04-26T11:36:08.806Z,1007.72
2019-04-26T11:38:01.230Z,1007.71
2019-04-26T11:39:04.973Z,1007.69
2019-04-26T11:41:05.750Z,1007.69
2019-04-26T11:41:54.232Z,1007.67
2019-04-26T11:43:49.038Z,1007.68
2019-04-26T11:44:47.306Z,1007.66
2019-04-26T11:46:44.952Z,1007.62
2019-04-26T11:47:54.362Z,1007.74
2019-04-26T11:49:33.326Z,1007.69
2019-04-26T11:50:33.386Z,1007.71
2019-04-26T11:52:26.398Z,1007.72
2019-04-26T11:53:26.441Z,1007.69
2019-04-26T11:55:19.429Z,1007.71
2019-04-26T11:56:19.488Z,1007.68
2019-04-26T11:58:12.514Z,1007.64
2019-04-26T11:59:12.543Z,1007.65
2019-04-26T12:01:05.540Z,1007.57
2019-04-26T12:02:05.589Z,1007.60
2019-04-26T12:03:59.520Z,1007.68
2019-04-26T12:04:59.670Z,1007.71
2019-04-26T12:06:51.620Z,1007.76
2019-04-26T12:07:51.692Z,1007.79
2019-04-26T12:09:44.702Z,1007.71
2019-04-26T12:10:45.844Z,1007.73
2019-04-26T12:12:37.737Z,1007.66
2019-04-26T12:13:37.787Z,1007.73
2019-04-26T12:15:30.818Z,1007.72
2019-04-26T12:16:30.834Z,1007.77
2019-04-26T12:18:23.930Z,1007.84
2019-04-26T12:19:23.885Z,1007.85
2019-04-26T12:21:16.900Z,1007.77
2019-04-26T12:22:16.930Z,1007.74
2019-04-26T12:24:09.922Z,1007.75
2019-04-26T12:25:09.981Z,1007.79
2019-04-26T12:27:03.056Z,1007.78
2019-04-26T12:28:06.123Z,1007.85
2019-04-26T12:29:56.022Z,1007.85
2019-04-26T12:30:58.473Z,1007.89
2019-04-26T12:32:50.169Z,1007.91
2019-04-26T12:33:49.133Z,1007.93
2019-04-26T12:35:42.130Z,1007.91
2019-04-26T12:36:42.193Z,1007.94
2019-04-26T12:38:35.198Z,1007.96
2019-04-26T12:39:36.819Z,1007.94
2019-04-26T12:41:39.901Z,1007.91
2019-04-26T12:42:28.289Z,1007.87
2019-04-26T12:44:21.290Z,1007.90
2019-04-26T12:45:21.342Z,1007.87
2019-04-26T12:47:14.369Z,1007.88
2019-04-26T12:48:15.727Z,1007.83
2019-04-26T12:50:07.387Z,1007.83
2019-04-26T12:51:08.161Z,1007.82
2019-04-26T12:53:00.475Z,1007.78
2019-04-26T12:54:03.765Z,1007.76
2019-04-26T12:55:58.030Z,1007.72
2019-04-26T12:56:53.547Z,1007.71
2019-04-26T12:58:49.996Z,1007.70
2019-04-26T12:59:46.602Z,1007.72
2019-04-26T13:01:42.650Z,1007.67
2019-04-26T13:02:39.665Z,1007.69
2019-04-26T13:04:36.243Z,1007.69
2019-04-26T13:05:32.714Z,1007.73
2019-04-26T13:07:25.728Z,1007.69
2019-04-26T13:08:25.761Z,1007.72
2019-04-26T13:10:18.757Z,1007.67
2019-04-26T13:11:18.816Z,1007.70
2019-04-26T13:13:11.828Z,1007.62
2019-04-26T13:14:11.862Z,1007.63
2019-04-26T13:16:04.865Z,1007.60
2019-04-26T13:17:04.930Z,1007.59
2019-04-26T13:18:57.938Z,1007.65
2019-04-26T13:19:57.980Z,1007.67
2019-04-26T13:21:50.997Z,1007.69
2019-04-26T13:22:54.193Z,1007.69
2019-04-26T13:24:44.027Z,1007.69
2019-04-26T13:25:44.082Z,1007.70
2019-04-26T13:27:37.110Z,1007.67
2019-04-26T13:28:37.137Z,1007.71
2019-04-26T13:30:32.918Z,1007.68
2019-04-26T13:31:31.733Z,1007.69
2019-04-26T13:33:27.287Z,1007.66
2019-04-26T13:34:23.240Z,1007.65
2019-04-26T13:36:16.230Z,1007.71
2019-04-26T13:37:16.293Z,1007.74
2019-04-26T13:39:09.304Z,1007.76
2019-04-26T13:40:09.347Z,1007.79
2019-04-26T13:42:07.693Z,1007.79
2019-04-26T13:43:02.404Z,1007.80
2019-04-26T13:44:55.416Z,1007.78
2019-04-26T13:45:55.453Z,1007.82
2019-04-26T13:47:48.464Z,1007.83
2019-04-26T13:48:48.521Z,1007.81
2019-04-26T13:50:41.521Z,1007.87
2019-04-26T13:51:41.555Z,1007.91
2019-04-26T13:53:34.540Z,1007.95
2019-04-26T13:54:34.600Z,1007.99
2019-04-26T13:56:27.610Z,1007.99
2019-04-26T13:57:27.657Z,1007.99
2019-04-26T13:59:20.661Z,1007.99
2019-04-26T14:00:20.711Z,1007.97
2019-04-26T14:02:13.763Z,1008.00
2019-04-26T14:03:13.768Z,1007.99
2019-04-26T14:05:06.762Z,1008.04
2019-04-26T14:06:06.824Z,1008.01
2019-04-26T14:07:59.841Z,1007.98
2019-04-26T14:09:02.829Z,1008.01
2019-04-26T14:10:52.892Z,1008.03
2019-04-26T14:11:52.956Z,1008.02
2019-04-26T14:13:45.977Z,1008.04
2019-04-26T14:14:46.006Z,1008.05
2019-04-26T14:16:38.993Z,1008.07
2019-04-26T14:17:39.055Z,1008.05
2019-04-26T14:19:32.065Z,1008.10
2019-04-26T14:20:32.110Z,1008.12
2019-04-26T14:22:25.145Z,1008.10
2019-04-26T14:23:25.165Z,1008.08
2019-04-26T14:25:18.164Z,1008.06
2019-04-26T14:26:18.426Z,1008.08
2019-04-26T14:28:11.237Z,1008.08
2019-04-26T14:29:11.281Z,1008.09
2019-04-26T14:31:04.297Z,1008.06
2019-04-26T14:32:04.333Z,1008.01
2019-04-26T14:33:57.334Z,1007.97
2019-04-26T14:34:57.398Z,1007.96
2019-04-26T14:36:50.414Z,1007.95
2019-04-26T14:37:51.604Z,1007.96
2019-04-26T14:40:44.496Z,1008.00
2019-04-26T14:42:42.237Z,1008.02
2019-04-26T14:43:40.843Z,1008.00
2019-04-26T14:45:29.562Z,1007.96
2019-04-26T14:46:29.620Z,1007.98
2019-04-26T14:48:35.266Z,1007.96
2019-04-26T14:49:23.348Z,1007.94
2019-04-26T14:51:16.986Z,1007.94
2019-04-26T14:52:15.743Z,1007.95
2019-04-26T14:54:11.503Z,1008.05
2019-04-26T14:55:08.789Z,1008.10
2019-04-26T14:57:07.690Z,1008.16
2019-04-26T14:58:02.071Z,1008.18
2019-04-26T14:59:56.814Z,1008.21
2019-04-26T15:00:55.841Z,1008.20
2019-04-26T15:02:48.584Z,1008.18
2019-04-26T15:03:51.526Z,1008.19
2019-04-26T15:05:43.072Z,1008.11
2019-04-26T15:06:42.402Z,1008.09
2019-04-26T15:08:34.523Z,1008.07
2019-04-26T15:09:36.510Z,1008.05
2019-04-26T15:11:27.613Z,1008.11
2019-04-26T15:12:27.646Z,1008.14
2019-04-26T15:14:22.372Z,1008.13
2019-04-26T15:15:20.696Z,1008.09
2019-04-26T15:17:16.376Z,1008.15
2019-04-26T15:18:13.747Z,1008.11
2019-04-26T15:20:06.761Z,1008.10
2019-04-26T15:21:06.822Z,1008.09
2019-04-26T15:22:59.847Z,1008.08
2019-04-26T15:24:00.403Z,1008.09
2019-04-26T15:25:53.037Z,1008.08
2019-04-26T15:26:52.942Z,1008.07
2019-04-26T15:28:50.520Z,1008.06
2019-04-26T15:29:45.989Z,1008.03
2019-04-26T15:31:38.977Z,1008.06
2019-04-26T15:32:39.041Z,1008.06
2019-04-26T15:34:32.058Z,1007.99
2019-04-26T15:35:35.617Z,1008.04
2019-04-26T15:37:28.394Z,1008.03
2019-04-26T15:38:25.144Z,1008.01
2019-04-26T15:40:18.175Z,1008.06
2019-04-26T15:41:18.210Z,1008.07
2019-04-26T15:43:14.850Z,1008.10
2019-04-26T15:44:11.960Z,1008.03
2019-04-26T15:46:04.280Z,1008.01
2019-04-26T15:47:05.843Z,1008.00
2019-04-26T15:48:57.298Z,1008.01
2019-04-26T15:49:57.363Z,1007.98
2019-04-26T15:51:50.390Z,1007.94
2019-04-26T15:52:50.424Z,1007.93
2019-04-26T15:54:43.411Z,1007.91
2019-04-26T15:55:43.645Z,1007.87
2019-04-26T15:57:36.551Z,1007.81
2019-04-26T15:58:38.661Z,1007.76
2019-04-26T16:00:32.734Z,1007.72
2019-04-26T16:01:29.598Z,1007.75
2019-04-26T16:03:22.848Z,1007.71
2019-04-26T16:04:23.893Z,1007.73
2019-04-26T16:06:15.646Z,1007.74
2019-04-26T16:07:26.970Z,1007.67
2019-04-26T16:09:08.738Z,1007.75
2019-04-26T16:10:08.776Z,1007.70
2019-04-26T16:12:03.598Z,1007.79
2019-04-26T16:13:16.224Z,1007.79
2019-04-26T16:14:55.377Z,1007.79
2019-04-26T16:15:55.377Z,1007.80
2019-04-26T16:17:48.396Z,1007.85
2019-04-26T16:18:49.981Z,1007.89
2019-04-26T16:20:42.834Z,1007.86
2019-04-26T16:21:42.539Z,1007.80
2019-04-26T16:23:41.185Z,1007.77
2019-04-26T16:24:34.668Z,1007.75
2019-04-26T16:26:27.542Z,1007.75
2019-04-26T16:27:30.899Z,1007.75
2019-04-26T16:29:21.134Z,1007.81
2019-04-26T16:30:21.156Z,1007.81
2019-04-26T16:32:16.905Z,1007.77
2019-04-26T16:33:14.204Z,1007.75
2019-04-26T16:35:07.219Z,1007.76
2019-04-26T16:36:07.261Z,1007.75
2019-04-26T16:38:00.297Z,1007.74
2019-04-26T16:39:00.309Z,1007.75
2019-04-26T16:40:55.003Z,1007.76
2019-04-26T16:41:53.379Z,1007.79
2019-04-26T16:43:53.183Z,1007.85
2019-04-26T16:44:46.431Z,1007.88
2019-04-26T16:46:39.451Z,1007.95
2019-04-26T16:47:45.248Z,1007.93
2019-04-26T16:49:35.199Z,1008.00
2019-04-26T16:50:37.198Z,1008.01
2019-04-26T16:52:25.535Z,1007.96
2019-04-26T16:53:43.653Z,1008.03
2019-04-26T16:55:21.170Z,1008.01
2019-04-26T16:56:25.979Z,1008.05
2019-04-26T16:58:12.652Z,1007.99
2019-04-26T16:59:14.190Z,1007.97
2019-04-26T17:01:09.970Z,1007.95
2019-04-26T17:02:04.749Z,1007.92
2019-04-26T17:03:57.748Z,1007.94
2019-04-26T17:05:03.589Z,1007.94
2019-04-26T17:06:50.831Z,1007.97
2019-04-26T17:07:53.753Z,1007.96
2019-04-26T17:09:59.809Z,1008.02
2019-04-26T17:10:43.922Z,1008.02
2019-04-26T17:12:36.944Z,1008.02
2019-04-26T17:13:48.392Z,1008.02
2019-04-26T17:15:29.971Z,1008.00
2019-04-26T17:16:34.729Z,1008.00
2019-04-26T17:18:23.879Z,1008.01
2019-04-26T17:19:23.092Z,1007.99
2019-04-26T17:21:17.628Z,1007.99
2019-04-26T17:22:16.139Z,1008.00
2019-04-26T17:24:09.768Z,1007.95
2019-04-26T17:25:09.185Z,1007.97
2019-04-26T17:27:05.486Z,1007.97